sensor_id;sensor_type;location;lat;lon;timestamp;temperature;humidity
21037;DHT22;10677;50.942;4.028;2023-07-20T00:00:52;18.80;99.90
21037;DHT22;10677;50.942;4.028;2023-07-20T00:03:19;18.80;99.90
21037;DHT22;10677;50.942;4.028;2023-07-20T00:05:51;18.80;99.90
21037;DHT22;10677;50.942;4.028;2023-07-20T00:08:17;18.80;99.90
21037;DHT22;10677;50.942;4.028;2023-07-20T00:10:43;18.70;99.90
21037;DHT22;10677;50.942;4.028;2023-07-20T00:13:10;18.70;99.90
21037;DHT22;10677;50.942;4.028;2023-07-20T00:15:36;18.70;99.90
21037;DHT22;10677;50.942;4.028;2023-07-20T00:18:06;18.70;99.90
21037;DHT22;10677;50.942;4.028;2023-07-20T00:20:32;18.60;99.90
21037;DHT22;10677;50.942;4.028;2023-07-20T00:22:58;18.60;99.90
21037;DHT22;10677;50.942;4.028;2023-07-20T00:25:24;18.80;99.90
21037;DHT22;10677;50.942;4.028;2023-07-20T00:27:50;18.70;99.90
21037;DHT22;10677;50.942;4.028;2023-07-20T00:30:16;18.60;99.90
21037;DHT22;10677;50.942;4.028;2023-07-20T00:32:42;18.60;99.90
21037;DHT22;10677;50.942;4.028;2023-07-20T00:35:08;18.60;99.90
21037;DHT22;10677;50.942;4.028;2023-07-20T00:37:34;18.50;99.90
21037;DHT22;10677;50.942;4.028;2023-07-20T00:40:00;18.30;99.90
21037;DHT22;10677;50.942;4.028;2023-07-20T00:42:26;18.00;99.90
21037;DHT22;10677;50.942;4.028;2023-07-20T00:44:51;17.70;99.90
21037;DHT22;10677;50.942;4.028;2023-07-20T00:47:17;17.60;99.90
21037;DHT22;10677;50.942;4.028;2023-07-20T00:49:43;17.60;99.90
21037;DHT22;10677;50.942;4.028;2023-07-20T00:52:10;17.50;99.90
21037;DHT22;10677;50.942;4.028;2023-07-20T00:54:37;17.50;99.90
21037;DHT22;10677;50.942;4.028;2023-07-20T00:57:04;17.60;99.90
21037;DHT22;10677;50.942;4.028;2023-07-20T00:59:31;17.60;99.90
21037;DHT22;10677;50.942;4.028;2023-07-20T01:01:56;17.70;99.90
21037;DHT22;10677;50.942;4.028;2023-07-20T01:04:22;17.70;99.90
21037;DHT22;10677;50.942;4.028;2023-07-20T01:06:58;17.90;99.90
21037;DHT22;10677;50.942;4.028;2023-07-20T01:12:14;18.10;99.90
21037;DHT22;10677;50.942;4.028;2023-07-20T01:14:44;18.10;99.90
21037;DHT22;10677;50.942;4.028;2023-07-20T01:17:10;18.10;99.90
21037;DHT22;10677;50.942;4.028;2023-07-20T01:19:37;18.20;99.90
21037;DHT22;10677;50.942;4.028;2023-07-20T01:22:29;18.10;99.90
21037;DHT22;10677;50.942;4.028;2023-07-20T01:33:42;18.10;99.90
21037;DHT22;10677;50.942;4.028;2023-07-20T01:36:08;18.10;99.90
21037;DHT22;10677;50.942;4.028;2023-07-20T01:38:36;18.10;99.90
21037;DHT22;10677;50.942;4.028;2023-07-20T01:41:02;18.00;99.90
21037;DHT22;10677;50.942;4.028;2023-07-20T01:43:28;18.10;99.90
21037;DHT22;10677;50.942;4.028;2023-07-20T01:45:54;18.20;99.90
21037;DHT22;10677;50.942;4.028;2023-07-20T01:48:20;18.20;99.90
21037;DHT22;10677;50.942;4.028;2023-07-20T01:50:45;18.10;99.90
21037;DHT22;10677;50.942;4.028;2023-07-20T01:53:11;18.10;99.90
21037;DHT22;10677;50.942;4.028;2023-07-20T01:55:37;18.20;99.90
21037;DHT22;10677;50.942;4.028;2023-07-20T01:58:02;18.20;99.90
21037;DHT22;10677;50.942;4.028;2023-07-20T02:00:29;18.10;99.90
21037;DHT22;10677;50.942;4.028;2023-07-20T02:02:54;18.00;99.90
21037;DHT22;10677;50.942;4.028;2023-07-20T02:05:20;17.70;99.90
21037;DHT22;10677;50.942;4.028;2023-07-20T02:07:46;17.70;99.90
21037;DHT22;10677;50.942;4.028;2023-07-20T02:10:12;17.70;99.90
21037;DHT22;10677;50.942;4.028;2023-07-20T02:12:37;17.70;99.90
21037;DHT22;10677;50.942;4.028;2023-07-20T02:15:04;17.70;99.90
21037;DHT22;10677;50.942;4.028;2023-07-20T02:17:30;17.70;99.90
21037;DHT22;10677;50.942;4.028;2023-07-20T02:19:56;17.70;99.90
21037;DHT22;10677;50.942;4.028;2023-07-20T02:22:23;17.80;99.90
21037;DHT22;10677;50.942;4.028;2023-07-20T02:24:48;17.60;99.90
21037;DHT22;10677;50.942;4.028;2023-07-20T02:27:15;17.60;99.90
21037;DHT22;10677;50.942;4.028;2023-07-20T02:29:41;17.60;99.90
21037;DHT22;10677;50.942;4.028;2023-07-20T02:32:08;17.60;99.90
21037;DHT22;10677;50.942;4.028;2023-07-20T02:34:35;17.50;99.90
21037;DHT22;10677;50.942;4.028;2023-07-20T02:37:01;17.50;99.90
21037;DHT22;10677;50.942;4.028;2023-07-20T02:39:30;17.50;99.90
21037;DHT22;10677;50.942;4.028;2023-07-20T02:41:55;17.40;99.90
21037;DHT22;10677;50.942;4.028;2023-07-20T02:44:21;17.40;99.90
21037;DHT22;10677;50.942;4.028;2023-07-20T02:46:47;17.30;99.90
21037;DHT22;10677;50.942;4.028;2023-07-20T02:49:15;17.30;99.90
21037;DHT22;10677;50.942;4.028;2023-07-20T02:51:41;17.20;99.90
21037;DHT22;10677;50.942;4.028;2023-07-20T02:54:07;17.30;99.90
21037;DHT22;10677;50.942;4.028;2023-07-20T02:56:32;17.30;99.90
21037;DHT22;10677;50.942;4.028;2023-07-20T02:58:58;17.30;99.90
21037;DHT22;10677;50.942;4.028;2023-07-20T03:01:24;17.40;99.90
21037;DHT22;10677;50.942;4.028;2023-07-20T03:03:49;17.50;99.90
21037;DHT22;10677;50.942;4.028;2023-07-20T03:06:16;17.50;99.90
21037;DHT22;10677;50.942;4.028;2023-07-20T03:08:42;17.20;99.90
21037;DHT22;10677;50.942;4.028;2023-07-20T03:11:13;17.20;99.90
21037;DHT22;10677;50.942;4.028;2023-07-20T03:13:40;17.40;99.90
21037;DHT22;10677;50.942;4.028;2023-07-20T03:16:07;17.40;99.90
21037;DHT22;10677;50.942;4.028;2023-07-20T03:18:39;17.40;99.90
21037;DHT22;10677;50.942;4.028;2023-07-20T03:21:06;17.30;99.90
21037;DHT22;10677;50.942;4.028;2023-07-20T03:23:32;17.10;99.90
21037;DHT22;10677;50.942;4.028;2023-07-20T03:25:58;17.10;99.90
21037;DHT22;10677;50.942;4.028;2023-07-20T03:28:24;17.20;99.90
21037;DHT22;10677;50.942;4.028;2023-07-20T03:30:53;17.10;99.90
21037;DHT22;10677;50.942;4.028;2023-07-20T03:33:21;17.30;99.90
21037;DHT22;10677;50.942;4.028;2023-07-20T03:35:47;17.60;99.90
21037;DHT22;10677;50.942;4.028;2023-07-20T03:38:12;17.70;99.90
21037;DHT22;10677;50.942;4.028;2023-07-20T03:40:38;17.80;99.90
21037;DHT22;10677;50.942;4.028;2023-07-20T03:43:04;17.70;99.90
21037;DHT22;10677;50.942;4.028;2023-07-20T03:45:29;17.70;99.90
21037;DHT22;10677;50.942;4.028;2023-07-20T03:47:55;17.70;99.90
21037;DHT22;10677;50.942;4.028;2023-07-20T03:50:21;17.80;99.90
21037;DHT22;10677;50.942;4.028;2023-07-20T03:52:47;17.70;99.90
21037;DHT22;10677;50.942;4.028;2023-07-20T03:55:13;17.80;99.90
21037;DHT22;10677;50.942;4.028;2023-07-20T03:57:38;17.80;99.90
21037;DHT22;10677;50.942;4.028;2023-07-20T04:00:05;17.80;99.90
21037;DHT22;10677;50.942;4.028;2023-07-20T04:02:33;17.70;99.90
21037;DHT22;10677;50.942;4.028;2023-07-20T04:04:58;17.70;99.90
21037;DHT22;10677;50.942;4.028;2023-07-20T04:07:24;17.60;99.90
21037;DHT22;10677;50.942;4.028;2023-07-20T04:09:50;17.40;99.90
21037;DHT22;10677;50.942;4.028;2023-07-20T04:12:15;17.30;99.90
21037;DHT22;10677;50.942;4.028;2023-07-20T04:14:41;17.20;99.90
21037;DHT22;10677;50.942;4.028;2023-07-20T04:17:07;17.10;99.90
21037;DHT22;10677;50.942;4.028;2023-07-20T04:19:33;17.10;99.90
21037;DHT22;10677;50.942;4.028;2023-07-20T04:21:58;17.10;99.90
21037;DHT22;10677;50.942;4.028;2023-07-20T04:24:24;17.00;99.90
21037;DHT22;10677;50.942;4.028;2023-07-20T04:26:50;17.10;99.90
21037;DHT22;10677;50.942;4.028;2023-07-20T04:29:15;17.20;99.90
21037;DHT22;10677;50.942;4.028;2023-07-20T04:31:41;17.20;99.90
21037;DHT22;10677;50.942;4.028;2023-07-20T04:34:07;17.10;99.90
21037;DHT22;10677;50.942;4.028;2023-07-20T04:36:32;16.90;99.90
21037;DHT22;10677;50.942;4.028;2023-07-20T04:38:58;17.00;99.90
21037;DHT22;10677;50.942;4.028;2023-07-20T04:41:24;17.00;99.90
21037;DHT22;10677;50.942;4.028;2023-07-20T04:43:50;17.20;99.90
21037;DHT22;10677;50.942;4.028;2023-07-20T04:46:16;17.20;99.90
21037;DHT22;10677;50.942;4.028;2023-07-20T04:48:43;17.40;99.90
21037;DHT22;10677;50.942;4.028;2023-07-20T04:51:09;17.40;99.90
21037;DHT22;10677;50.942;4.028;2023-07-20T04:53:35;17.30;99.90
21037;DHT22;10677;50.942;4.028;2023-07-20T04:56:01;17.00;99.90
21037;DHT22;10677;50.942;4.028;2023-07-20T04:58:27;16.90;99.90
21037;DHT22;10677;50.942;4.028;2023-07-20T05:00:52;16.90;99.90
21037;DHT22;10677;50.942;4.028;2023-07-20T05:03:18;16.80;99.90
21037;DHT22;10677;50.942;4.028;2023-07-20T05:05:44;17.00;99.90
21037;DHT22;10677;50.942;4.028;2023-07-20T05:08:10;17.10;99.90
21037;DHT22;10677;50.942;4.028;2023-07-20T05:10:35;17.30;99.90
21037;DHT22;10677;50.942;4.028;2023-07-20T05:13:01;17.30;99.90
21037;DHT22;10677;50.942;4.028;2023-07-20T05:15:27;17.30;99.90
21037;DHT22;10677;50.942;4.028;2023-07-20T05:17:52;17.40;99.90
21037;DHT22;10677;50.942;4.028;2023-07-20T05:20:18;17.50;99.90
21037;DHT22;10677;50.942;4.028;2023-07-20T05:22:44;17.70;99.90
21037;DHT22;10677;50.942;4.028;2023-07-20T05:25:10;17.80;99.90
21037;DHT22;10677;50.942;4.028;2023-07-20T05:27:37;17.90;99.90
21037;DHT22;10677;50.942;4.028;2023-07-20T05:30:04;17.90;99.90
21037;DHT22;10677;50.942;4.028;2023-07-20T05:32:30;17.50;99.90
21037;DHT22;10677;50.942;4.028;2023-07-20T05:34:56;17.60;99.90
21037;DHT22;10677;50.942;4.028;2023-07-20T05:37:22;17.60;99.90
21037;DHT22;10677;50.942;4.028;2023-07-20T05:39:48;17.60;99.90
21037;DHT22;10677;50.942;4.028;2023-07-20T05:42:13;17.70;99.90
21037;DHT22;10677;50.942;4.028;2023-07-20T05:44:40;18.00;99.90
21037;DHT22;10677;50.942;4.028;2023-07-20T05:47:06;18.00;99.90
21037;DHT22;10677;50.942;4.028;2023-07-20T05:49:32;17.90;99.90
21037;DHT22;10677;50.942;4.028;2023-07-20T05:51:57;18.10;99.90
21037;DHT22;10677;50.942;4.028;2023-07-20T05:54:26;18.50;99.90
21037;DHT22;10677;50.942;4.028;2023-07-20T05:56:52;18.50;99.90
21037;DHT22;10677;50.942;4.028;2023-07-20T05:59:18;18.60;99.90
21037;DHT22;10677;50.942;4.028;2023-07-20T06:01:45;18.70;99.90
21037;DHT22;10677;50.942;4.028;2023-07-20T06:04:12;18.50;99.90
21037;DHT22;10677;50.942;4.028;2023-07-20T06:06:38;18.40;99.90
21037;DHT22;10677;50.942;4.028;2023-07-20T06:09:03;18.60;99.90
21037;DHT22;10677;50.942;4.028;2023-07-20T06:11:30;18.90;99.90
21037;DHT22;10677;50.942;4.028;2023-07-20T06:13:57;19.10;99.90
21037;DHT22;10677;50.942;4.028;2023-07-20T06:16:23;19.10;99.90
21037;DHT22;10677;50.942;4.028;2023-07-20T06:18:48;19.20;99.90
21037;DHT22;10677;50.942;4.028;2023-07-20T06:21:14;19.40;99.90
21037;DHT22;10677;50.942;4.028;2023-07-20T06:23:40;19.60;99.90
21037;DHT22;10677;50.942;4.028;2023-07-20T06:26:06;19.60;99.90
21037;DHT22;10677;50.942;4.028;2023-07-20T06:28:33;19.70;99.90
21037;DHT22;10677;50.942;4.028;2023-07-20T06:31:03;19.80;99.90
21037;DHT22;10677;50.942;4.028;2023-07-20T06:33:29;19.70;99.90
21037;DHT22;10677;50.942;4.028;2023-07-20T06:35:54;19.80;99.90
21037;DHT22;10677;50.942;4.028;2023-07-20T06:38:22;19.90;99.90
21037;DHT22;10677;50.942;4.028;2023-07-20T06:40:49;20.00;99.90
21037;DHT22;10677;50.942;4.028;2023-07-20T06:43:15;20.10;99.90
21037;DHT22;10677;50.942;4.028;2023-07-20T06:45:41;20.00;99.90
21037;DHT22;10677;50.942;4.028;2023-07-20T06:48:07;19.90;99.90
21037;DHT22;10677;50.942;4.028;2023-07-20T06:50:32;19.90;99.90
21037;DHT22;10677;50.942;4.028;2023-07-20T06:52:58;20.10;99.90
21037;DHT22;10677;50.942;4.028;2023-07-20T06:55:25;20.30;99.90
21037;DHT22;10677;50.942;4.028;2023-07-20T06:57:51;20.50;99.90
21037;DHT22;10677;50.942;4.028;2023-07-20T07:00:17;20.60;99.90
21037;DHT22;10677;50.942;4.028;2023-07-20T07:02:43;20.60;99.90
21037;DHT22;10677;50.942;4.028;2023-07-20T07:05:09;20.70;99.90
21037;DHT22;10677;50.942;4.028;2023-07-20T07:07:34;20.70;99.90
21037;DHT22;10677;50.942;4.028;2023-07-20T07:10:01;20.80;99.90
21037;DHT22;10677;50.942;4.028;2023-07-20T07:12:30;20.90;99.90
21037;DHT22;10677;50.942;4.028;2023-07-20T07:14:55;21.00;99.90
21037;DHT22;10677;50.942;4.028;2023-07-20T07:17:21;20.90;99.90
21037;DHT22;10677;50.942;4.028;2023-07-20T07:19:47;20.70;99.90
21037;DHT22;10677;50.942;4.028;2023-07-20T07:22:12;20.40;99.90
21037;DHT22;10677;50.942;4.028;2023-07-20T07:24:39;20.30;99.90
21037;DHT22;10677;50.942;4.028;2023-07-20T07:27:08;20.10;99.90
21037;DHT22;10677;50.942;4.028;2023-07-20T07:29:33;20.10;99.90
21037;DHT22;10677;50.942;4.028;2023-07-20T07:31:59;20.20;99.90
21037;DHT22;10677;50.942;4.028;2023-07-20T07:34:25;20.20;99.90
21037;DHT22;10677;50.942;4.028;2023-07-20T07:36:51;20.10;99.90
21037;DHT22;10677;50.942;4.028;2023-07-20T07:39:17;20.00;99.90
21037;DHT22;10677;50.942;4.028;2023-07-20T07:41:42;20.20;99.90
21037;DHT22;10677;50.942;4.028;2023-07-20T07:44:08;20.10;99.90
21037;DHT22;10677;50.942;4.028;2023-07-20T07:46:34;20.10;99.90
21037;DHT22;10677;50.942;4.028;2023-07-20T07:48:59;20.00;99.90
21037;DHT22;10677;50.942;4.028;2023-07-20T07:51:25;19.90;99.90
21037;DHT22;10677;50.942;4.028;2023-07-20T07:53:52;19.40;99.90
21037;DHT22;10677;50.942;4.028;2023-07-20T07:56:18;19.10;99.90
21037;DHT22;10677;50.942;4.028;2023-07-20T07:58:51;19.40;99.90
21037;DHT22;10677;50.942;4.028;2023-07-20T08:01:19;19.70;99.90
21037;DHT22;10677;50.942;4.028;2023-07-20T08:03:45;19.60;99.90
21037;DHT22;10677;50.942;4.028;2023-07-20T08:06:13;19.80;99.90
21037;DHT22;10677;50.942;4.028;2023-07-20T08:08:39;19.60;99.90
21037;DHT22;10677;50.942;4.028;2023-07-20T08:11:04;19.50;99.90
21037;DHT22;10677;50.942;4.028;2023-07-20T08:13:30;19.70;99.90
21037;DHT22;10677;50.942;4.028;2023-07-20T08:15:56;19.80;99.90
21037;DHT22;10677;50.942;4.028;2023-07-20T08:18:22;20.10;99.90
21037;DHT22;10677;50.942;4.028;2023-07-20T08:20:48;20.50;99.90
21037;DHT22;10677;50.942;4.028;2023-07-20T08:23:14;20.90;99.90
21037;DHT22;10677;50.942;4.028;2023-07-20T08:25:41;21.40;99.90
21037;DHT22;10677;50.942;4.028;2023-07-20T08:28:10;21.70;99.90
21037;DHT22;10677;50.942;4.028;2023-07-20T08:30:44;22.00;99.90
21037;DHT22;10677;50.942;4.028;2023-07-20T08:33:12;21.80;99.90
21037;DHT22;10677;50.942;4.028;2023-07-20T08:35:41;21.90;99.90
21037;DHT22;10677;50.942;4.028;2023-07-20T08:38:07;21.90;99.90
21037;DHT22;10677;50.942;4.028;2023-07-20T08:40:44;21.90;99.90
21037;DHT22;10677;50.942;4.028;2023-07-20T08:43:14;21.90;99.90
21037;DHT22;10677;50.942;4.028;2023-07-20T08:45:42;21.50;99.90
21037;DHT22;10677;50.942;4.028;2023-07-20T08:48:11;21.30;99.90
21037;DHT22;10677;50.942;4.028;2023-07-20T08:50:38;21.50;99.90
21037;DHT22;10677;50.942;4.028;2023-07-20T08:53:04;21.90;99.90
21037;DHT22;10677;50.942;4.028;2023-07-20T08:55:31;22.30;99.90
21037;DHT22;10677;50.942;4.028;2023-07-20T08:58:00;22.80;99.90
21037;DHT22;10677;50.942;4.028;2023-07-20T09:00:27;23.10;99.90
21037;DHT22;10677;50.942;4.028;2023-07-20T09:02:57;23.30;99.90
21037;DHT22;10677;50.942;4.028;2023-07-20T09:05:23;23.20;99.90
21037;DHT22;10677;50.942;4.028;2023-07-20T09:07:51;23.10;99.90
21037;DHT22;10677;50.942;4.028;2023-07-20T09:10:17;23.00;99.90
21037;DHT22;10677;50.942;4.028;2023-07-20T09:12:43;22.60;99.90
21037;DHT22;10677;50.942;4.028;2023-07-20T09:15:11;22.60;99.90
21037;DHT22;10677;50.942;4.028;2023-07-20T09:17:37;22.80;99.90
21037;DHT22;10677;50.942;4.028;2023-07-20T09:20:07;23.10;99.90
21037;DHT22;10677;50.942;4.028;2023-07-20T09:22:37;22.80;99.90
21037;DHT22;10677;50.942;4.028;2023-07-20T09:25:08;22.60;99.90
21037;DHT22;10677;50.942;4.028;2023-07-20T09:27:46;22.90;99.90
21037;DHT22;10677;50.942;4.028;2023-07-20T09:30:14;23.00;99.90
21037;DHT22;10677;50.942;4.028;2023-07-20T09:32:42;23.30;99.90
21037;DHT22;10677;50.942;4.028;2023-07-20T09:35:28;23.40;99.90
21037;DHT22;10677;50.942;4.028;2023-07-20T09:37:58;23.70;99.90
21037;DHT22;10677;50.942;4.028;2023-07-20T09:40:25;23.90;99.90
21037;DHT22;10677;50.942;4.028;2023-07-20T09:42:53;23.70;99.90
21037;DHT22;10677;50.942;4.028;2023-07-20T09:45:33;23.80;99.90
21037;DHT22;10677;50.942;4.028;2023-07-20T09:48:09;24.00;99.90
21037;DHT22;10677;50.942;4.028;2023-07-20T09:50:43;24.10;99.90
21037;DHT22;10677;50.942;4.028;2023-07-20T09:53:12;24.10;99.90
21037;DHT22;10677;50.942;4.028;2023-07-20T09:55:41;24.00;99.90
21037;DHT22;10677;50.942;4.028;2023-07-20T09:58:09;24.20;99.90
21037;DHT22;10677;50.942;4.028;2023-07-20T10:00:36;24.40;99.90
21037;DHT22;10677;50.942;4.028;2023-07-20T10:03:04;24.60;99.90
21037;DHT22;10677;50.942;4.028;2023-07-20T10:05:34;24.80;99.90
21037;DHT22;10677;50.942;4.028;2023-07-20T10:08:02;24.80;99.90
21037;DHT22;10677;50.942;4.028;2023-07-20T10:10:32;24.70;99.90
21037;DHT22;10677;50.942;4.028;2023-07-20T10:13:01;24.60;99.90
21037;DHT22;10677;50.942;4.028;2023-07-20T10:15:40;24.60;99.90
21037;DHT22;10677;50.942;4.028;2023-07-20T10:18:29;24.90;99.90
21037;DHT22;10677;50.942;4.028;2023-07-20T10:20:57;25.20;99.90
21037;DHT22;10677;50.942;4.028;2023-07-20T10:23:24;24.90;99.90
21037;DHT22;10677;50.942;4.028;2023-07-20T10:25:52;25.20;99.90
21037;DHT22;10677;50.942;4.028;2023-07-20T10:28:18;25.00;99.90
21037;DHT22;10677;50.942;4.028;2023-07-20T10:30:45;25.00;99.90
21037;DHT22;10677;50.942;4.028;2023-07-20T10:33:11;25.20;99.90
21037;DHT22;10677;50.942;4.028;2023-07-20T10:36:13;25.40;99.90
21037;DHT22;10677;50.942;4.028;2023-07-20T10:41:19;24.70;99.90
21037;DHT22;10677;50.942;4.028;2023-07-20T10:43:46;24.90;99.90
21037;DHT22;10677;50.942;4.028;2023-07-20T10:46:12;24.40;99.90
21037;DHT22;10677;50.942;4.028;2023-07-20T10:49:00;24.30;99.90
21037;DHT22;10677;50.942;4.028;2023-07-20T10:51:30;24.20;99.90
21037;DHT22;10677;50.942;4.028;2023-07-20T10:54:02;23.70;99.90
21037;DHT22;10677;50.942;4.028;2023-07-20T10:56:28;24.20;99.90
21037;DHT22;10677;50.942;4.028;2023-07-20T10:59:01;24.80;99.90
21037;DHT22;10677;50.942;4.028;2023-07-20T11:01:44;25.00;99.90
21037;DHT22;10677;50.942;4.028;2023-07-20T11:04:10;24.60;99.90
21037;DHT22;10677;50.942;4.028;2023-07-20T11:06:36;25.00;99.90
21037;DHT22;10677;50.942;4.028;2023-07-20T11:09:09;24.80;99.90
21037;DHT22;10677;50.942;4.028;2023-07-20T11:11:38;25.10;99.90
21037;DHT22;10677;50.942;4.028;2023-07-20T11:14:06;25.60;99.90
21037;DHT22;10677;50.942;4.028;2023-07-20T11:19:01;26.00;99.90
21037;DHT22;10677;50.942;4.028;2023-07-20T11:21:27;26.10;99.90
21037;DHT22;10677;50.942;4.028;2023-07-20T11:23:53;26.10;99.90
21037;DHT22;10677;50.942;4.028;2023-07-20T11:26:19;26.00;99.90
21037;DHT22;10677;50.942;4.028;2023-07-20T11:28:49;25.90;99.90
21037;DHT22;10677;50.942;4.028;2023-07-20T11:31:15;25.90;99.90
21037;DHT22;10677;50.942;4.028;2023-07-20T11:33:43;25.80;99.90
21037;DHT22;10677;50.942;4.028;2023-07-20T11:36:09;25.60;99.90
21037;DHT22;10677;50.942;4.028;2023-07-20T11:38:34;25.80;99.90
21037;DHT22;10677;50.942;4.028;2023-07-20T11:41:02;25.90;99.90
21037;DHT22;10677;50.942;4.028;2023-07-20T11:43:28;26.00;99.90
21037;DHT22;10677;50.942;4.028;2023-07-20T11:45:54;26.10;99.90
21037;DHT22;10677;50.942;4.028;2023-07-20T11:48:20;25.80;99.90
21037;DHT22;10677;50.942;4.028;2023-07-20T11:50:46;25.50;99.90
21037;DHT22;10677;50.942;4.028;2023-07-20T11:53:12;25.30;99.90
21037;DHT22;10677;50.942;4.028;2023-07-20T11:55:42;25.00;99.90
21037;DHT22;10677;50.942;4.028;2023-07-20T11:58:09;25.00;99.90
21037;DHT22;10677;50.942;4.028;2023-07-20T12:00:37;24.90;99.90
21037;DHT22;10677;50.942;4.028;2023-07-20T12:03:05;24.90;99.90
21037;DHT22;10677;50.942;4.028;2023-07-20T12:05:37;24.80;99.90
21037;DHT22;10677;50.942;4.028;2023-07-20T12:08:03;24.70;99.90
21037;DHT22;10677;50.942;4.028;2023-07-20T12:10:29;24.70;99.90
21037;DHT22;10677;50.942;4.028;2023-07-20T12:13:01;24.70;99.90
21037;DHT22;10677;50.942;4.028;2023-07-20T12:15:28;24.40;99.90
21037;DHT22;10677;50.942;4.028;2023-07-20T12:18:01;24.50;99.90
21037;DHT22;10677;50.942;4.028;2023-07-20T12:20:37;24.60;99.90
21037;DHT22;10677;50.942;4.028;2023-07-20T12:23:11;24.50;99.90
21037;DHT22;10677;50.942;4.028;2023-07-20T12:25:40;24.30;99.90
21037;DHT22;10677;50.942;4.028;2023-07-20T12:28:08;24.10;99.90
21037;DHT22;10677;50.942;4.028;2023-07-20T12:30:34;24.00;99.90
21037;DHT22;10677;50.942;4.028;2023-07-20T12:33:00;23.70;99.90
21037;DHT22;10677;50.942;4.028;2023-07-20T12:35:26;23.50;99.90
21037;DHT22;10677;50.942;4.028;2023-07-20T12:37:52;23.30;99.90
21037;DHT22;10677;50.942;4.028;2023-07-20T12:40:19;23.00;99.90
21037;DHT22;10677;50.942;4.028;2023-07-20T12:42:44;22.80;99.90
21037;DHT22;10677;50.942;4.028;2023-07-20T12:45:10;22.40;99.90
21037;DHT22;10677;50.942;4.028;2023-07-20T12:47:37;21.80;99.90
21037;DHT22;10677;50.942;4.028;2023-07-20T12:50:02;21.70;99.90
21037;DHT22;10677;50.942;4.028;2023-07-20T12:52:29;20.90;99.90
21037;DHT22;10677;50.942;4.028;2023-07-20T12:54:55;20.50;99.90
21037;DHT22;10677;50.942;4.028;2023-07-20T12:57:21;20.10;99.90
21037;DHT22;10677;50.942;4.028;2023-07-20T12:59:46;19.70;99.90
21037;DHT22;10677;50.942;4.028;2023-07-20T13:02:12;19.60;99.90
21037;DHT22;10677;50.942;4.028;2023-07-20T13:04:37;19.60;99.90
21037;DHT22;10677;50.942;4.028;2023-07-20T13:07:03;19.60;99.90
21037;DHT22;10677;50.942;4.028;2023-07-20T13:09:29;19.60;99.90
21037;DHT22;10677;50.942;4.028;2023-07-20T13:11:55;20.10;99.90
21037;DHT22;10677;50.942;4.028;2023-07-20T13:14:22;20.40;99.90
21037;DHT22;10677;50.942;4.028;2023-07-20T13:16:48;20.60;99.90
21037;DHT22;10677;50.942;4.028;2023-07-20T13:19:13;21.00;99.90
21037;DHT22;10677;50.942;4.028;2023-07-20T13:21:39;21.20;99.90
21037;DHT22;10677;50.942;4.028;2023-07-20T13:24:05;21.50;99.90
21037;DHT22;10677;50.942;4.028;2023-07-20T13:26:31;21.80;99.90
21037;DHT22;10677;50.942;4.028;2023-07-20T13:28:58;22.00;99.90
21037;DHT22;10677;50.942;4.028;2023-07-20T13:31:24;22.40;99.90
21037;DHT22;10677;50.942;4.028;2023-07-20T13:33:50;22.80;99.90
21037;DHT22;10677;50.942;4.028;2023-07-20T13:36:15;23.50;99.90
21037;DHT22;10677;50.942;4.028;2023-07-20T13:38:41;24.90;99.90
21037;DHT22;10677;50.942;4.028;2023-07-20T13:41:07;25.50;99.90
21037;DHT22;10677;50.942;4.028;2023-07-20T13:43:33;26.90;99.90
21037;DHT22;10677;50.942;4.028;2023-07-20T13:45:58;28.70;99.90
21037;DHT22;10677;50.942;4.028;2023-07-20T13:48:24;31.20;99.90
21037;DHT22;10677;50.942;4.028;2023-07-20T13:50:50;32.80;99.90
21037;DHT22;10677;50.942;4.028;2023-07-20T13:53:18;32.70;99.90
21037;DHT22;10677;50.942;4.028;2023-07-20T13:55:43;34.40;99.90
21037;DHT22;10677;50.942;4.028;2023-07-20T13:58:09;35.40;99.90
21037;DHT22;10677;50.942;4.028;2023-07-20T14:00:36;36.10;99.90
21037;DHT22;10677;50.942;4.028;2023-07-20T14:03:01;36.60;99.90
21037;DHT22;10677;50.942;4.028;2023-07-20T14:05:27;35.40;99.90
21037;DHT22;10677;50.942;4.028;2023-07-20T14:07:53;33.20;99.90
21037;DHT22;10677;50.942;4.028;2023-07-20T14:10:19;31.20;99.90
21037;DHT22;10677;50.942;4.028;2023-07-20T14:12:45;29.70;99.90
21037;DHT22;10677;50.942;4.028;2023-07-20T14:15:11;29.00;99.90
21037;DHT22;10677;50.942;4.028;2023-07-20T14:17:37;28.40;99.90
21037;DHT22;10677;50.942;4.028;2023-07-20T14:20:03;27.90;99.90
21037;DHT22;10677;50.942;4.028;2023-07-20T14:22:33;27.20;99.90
21037;DHT22;10677;50.942;4.028;2023-07-20T14:24:59;26.00;99.90
21037;DHT22;10677;50.942;4.028;2023-07-20T14:27:25;25.50;99.90
21037;DHT22;10677;50.942;4.028;2023-07-20T14:29:50;25.40;99.90
21037;DHT22;10677;50.942;4.028;2023-07-20T14:32:16;25.00;99.90
21037;DHT22;10677;50.942;4.028;2023-07-20T14:34:42;24.40;99.90
21037;DHT22;10677;50.942;4.028;2023-07-20T14:37:07;24.20;99.90
21037;DHT22;10677;50.942;4.028;2023-07-20T14:39:33;24.10;99.90
21037;DHT22;10677;50.942;4.028;2023-07-20T14:41:59;23.60;99.90
21037;DHT22;10677;50.942;4.028;2023-07-20T14:44:24;23.00;99.90
21037;DHT22;10677;50.942;4.028;2023-07-20T14:46:50;22.70;99.90
21037;DHT22;10677;50.942;4.028;2023-07-20T14:49:16;22.20;99.90
21037;DHT22;10677;50.942;4.028;2023-07-20T14:51:43;21.70;99.90
21037;DHT22;10677;50.942;4.028;2023-07-20T14:54:12;21.10;99.90
21037;DHT22;10677;50.942;4.028;2023-07-20T14:56:38;20.20;99.90
21037;DHT22;10677;50.942;4.028;2023-07-20T14:59:05;19.20;99.90
21037;DHT22;10677;50.942;4.028;2023-07-20T15:01:31;18.50;99.90
21037;DHT22;10677;50.942;4.028;2023-07-20T15:03:57;17.90;99.90
21037;DHT22;10677;50.942;4.028;2023-07-20T15:06:26;17.40;99.90
21037;DHT22;10677;50.942;4.028;2023-07-20T15:08:52;17.10;99.90
21037;DHT22;10677;50.942;4.028;2023-07-20T15:11:18;17.00;99.90
21037;DHT22;10677;50.942;4.028;2023-07-20T15:13:43;16.90;99.90
21037;DHT22;10677;50.942;4.028;2023-07-20T15:16:09;16.90;99.90
21037;DHT22;10677;50.942;4.028;2023-07-20T15:18:37;16.90;99.90
21037;DHT22;10677;50.942;4.028;2023-07-20T15:21:03;16.90;99.90
21037;DHT22;10677;50.942;4.028;2023-07-20T15:23:29;16.90;99.90
21037;DHT22;10677;50.942;4.028;2023-07-20T15:25:55;16.90;99.90
21037;DHT22;10677;50.942;4.028;2023-07-20T15:28:21;17.00;99.90
21037;DHT22;10677;50.942;4.028;2023-07-20T15:30:47;17.00;99.90
21037;DHT22;10677;50.942;4.028;2023-07-20T15:33:12;17.00;99.90
21037;DHT22;10677;50.942;4.028;2023-07-20T15:35:39;17.10;99.90
21037;DHT22;10677;50.942;4.028;2023-07-20T15:38:05;17.10;99.90
21037;DHT22;10677;50.942;4.028;2023-07-20T15:40:31;17.20;99.90
21037;DHT22;10677;50.942;4.028;2023-07-20T15:42:56;17.20;99.90
21037;DHT22;10677;50.942;4.028;2023-07-20T15:45:22;17.50;99.90